METAR stanice u blizini

 

LYBE - Beograd / Surčin, Srbija
Ažurirano: 27/01/2021 12:00
Mostly Cloudy
Mostly Cloudy
 Pravac vetra ZSZ
Vetar: ZSZ 24 km/h
Temperatura: 2°C
Osećaj hladnoće: -3°C
Tačka rose: -2°C
Vlažnost: 75%
Pritisak: 1015 hPa
Oblaci: Mostly Cloudy
Vidljivost: 10 km
Cloud details: Partly Cloudy 610 m
Mostly Cloudy 1067 m
2021/01/27 11:00 LYBE 271100Z 30013KT 9999 SCT020 BKN035 02/M02 Q1015 NOSIG
LYBT - Beograd / Batajnica, Srbija
Ažurirano: 27/01/2021 12:00
Mostly Cloudy
Mostly Cloudy
 Pravac vetra Z
Vetar: Z 24 km/h
Temperatura: 2°C
Osećaj hladnoće: -3°C
Tačka rose: -3°C
Vlažnost: 70%
Pritisak: 1015 hPa
Oblaci: Mostly Cloudy
Vidljivost: 10 km
Cloud details: Mostly Cloudy 1006 m
2021/01/27 11:00 LYBT 271100Z 28013KT 250V310 9999 BKN033 02/M03 Q1015 NOSIG
LYVR - Vršac, Srbija
Ažurirano: 27/01/2021 12:00
Mostly Cloudy
Mostly Cloudy
 Pravac vetra SSZ
Vetar: SSZ 17 km/h
Temperatura: 1°C
Osećaj hladnoće: -3°C
Tačka rose: -2°C
Vlažnost: 81%
Pritisak: 1013 hPa
Oblaci: Mostly Cloudy
Vidljivost: 10 km
Cloud details: Mostly Cloudy 396 m
2021/01/27 11:00 LYVR 271100Z 34009KT 310V040 9999 BKN013 01/M02 Q1013 NOSIG
 
LYKV - Lađevci, Srbija
Ažurirano: 27/01/2021 12:00
Mostly Cloudy
Mostly Cloudy
 Pravac vetra SZ
Vetar: SZ 19 km/h
Temperatura: 2°C
Osećaj hladnoće: -2°C
Tačka rose: -1°C
Vlažnost: 81%
Pritisak: 1014 hPa
Oblaci: Mostly Cloudy
Vidljivost: 10 km
Cloud details: Partly Cloudy 305 m
Mostly Cloudy 823 m
2021/01/27 11:00 LYKV 271100Z 31010KT 280V350 9999 SCT010 BKN027 02/M01 Q1014 13/////// NOSIG
LYNI - Niš, Srbija
Ažurirano: 27/01/2021 12:00
Mostly Cloudy
Mostly Cloudy
 Pravac vetra SZ
Vetar: SZ 24 km/h
Temperatura: 1°C
Osećaj hladnoće: -4°C
Tačka rose: -1°C
Vlažnost: 87%
Pritisak: 1011 hPa
Oblaci: Mostly Cloudy
Vidljivost: 10 km
Cloud details: Partly Cloudy 427 m
Mostly Cloudy 914 m
2021/01/27 11:00 LYNI 271100Z 32013KT 9999 SCT014 BKN030 01/M01 Q1011 R11/4/0295 TEMPO 4000 SHSN SCT014 BKN025TCU
BKPR - Priština, Srbija
Ažurirano: 27/01/2021 12:00
Mostly Cloudy
Mostly Cloudy
 Pravac vetra SZ
Vetar: SZ 20 km/h
Temperatura: 1°C
Osećaj hladnoće: -4°C
Tačka rose: -6°C
Vlažnost: 60%
Pritisak: 1010 hPa
Oblaci: Mostly Cloudy
Vidljivost: 10 km
Cloud details: Partly Cloudy 762 m
Mostly Cloudy 1524 m
2021/01/27 11:00 BKPR 271100Z 31011KT 9999 SCT025 BKN050 01/M06 Q1010 NOSIG RMK 17190095
 
LHPP - Pecs / Pogany, Hungary
Ažurirano: 27/01/2021 11:45
Partly Cloudy
Partly Cloudy
 Pravac vetra SSZ
Vetar: SSZ 24 km/h
Temperatura: 2°C
Osećaj hladnoće: -3°C
Tačka rose: -3°C
Vlažnost: 70%
Pritisak: 1015 hPa
Oblaci: Partly Cloudy
Vidljivost: 10 km
Cloud details: Partly Cloudy 792 m
Partly Cloudy 2530 m
2021/01/27 10:45 LHPP 271045Z 33013KT 9999 SCT026 SCT083 02/M03 Q1015
LHUD - Szeged, Hungary
Ažurirano: 04/07/2019 01:45
NOT Current
Vedro
Vedro
 Pravac vetra S
Vetar: S 7 km/h
Temperatura: 18°C
Tačka rose: 13°C
Vlažnost: 73%
Pritisak: 1019 hPa
Pregled: Vedro
Vidljivost: greater than 10 km
2019/07/03 23:45 LHUD 032345Z 35004KT CAVOK 18/13 Q1019
LRTR - Timisoara, Romania
Ažurirano: 27/01/2021 12:00
Mist, Delimično oblačno
Mist, Delimično oblačno
 Pravac vetra SZ
Vetar: SZ 15 km/h
Temperatura: -1°C
Osećaj hladnoće: -6°C
Tačka rose: -1°C
Vlažnost: 100%
Pritisak: 1013 hPa
Pregled: Mist
Oblaci: Partly Cloudy
Vidljivost: 5 km
Cloud details: Partly Cloudy 122 m
2021/01/27 11:00 LRTR 271100Z 31008KT 280V340 5000 BR SCT004 M01/M01 Q1013
 
LRCV - Craiova, Romania
Ažurirano: 27/01/2021 12:00
Vedro
Vedro
 Pravac vetra Z
Vetar: Z 7 km/h
Temperatura: 2°C
Osećaj hladnoće: 0°C
Tačka rose: 1°C
Vlažnost: 93%
Pritisak: 1007 hPa
Pregled: Vedro
Vidljivost: greater than 10 km
2021/01/27 11:00 LRCV 271100Z 27004KT CAVOK 02/01 Q1007 R27/29//94
LBSF - Sofia, Bulgaria
Ažurirano: 27/01/2021 12:00
Light snow, Oblačno
Light snow, Oblačno
 Pravac vetra Z
Vetar: Z 28 km/h
Temperatura: -2°C
Osećaj hladnoće: -9°C
Tačka rose: -5°C
Vlažnost: 80%
Pritisak: 1007 hPa
Pregled: Light Snow
Oblaci: Oblačno
Vidljivost: 5 km
Cloud details: Partly Cloudy 975 m
Oblačno 1219 m
2021/01/27 11:00 LBSF 271100Z 28015KT 5000 -SN SCT032 OVC040 M02/M05 Q1007 R99/29//95 TEMPO 3000 SN
LWSK - Skoplje, Makedonija
Ažurirano: 27/01/2021 11:30
Mostly Cloudy
Mostly Cloudy
 Pravac vetra SSZ
Vetar: SSZ 13 km/h
Temperatura: 3°C
Osećaj hladnoće: -1°C
Tačka rose: -4°C
Vlažnost: 60%
Pritisak: 1011 hPa
Oblaci: Mostly Cloudy
Vidljivost: 10 km
Cloud details: Mostly Cloudy 1219 m
Mostly Cloudy 2134 m
2021/01/27 10:30 LWSK 271030Z 34007KT 9999 BKN040 BKN070 03/M04 Q1011 NOSIG
 
LYPG - Podgorica, Crna Gora
Ažurirano: 27/01/2021 12:00
Few Clouds
Few Clouds
 Pravac vetra SSI
Vetar: SSI 20 km/h
Temperatura: 8°C
Osećaj hladnoće: 4°C
Tačka rose: -10°C
Vlažnost: 27%
Pritisak: 1013 hPa
Oblaci: Few Clouds
Vidljivost: 10 km
Cloud details: Few Clouds 1524 m
2021/01/27 11:00 LYPG 271100Z 02011KT 9999 FEW050 08/M10 Q1013 NOSIG
LQSA - Sarajevo, Bosna i Hercegovina
Ažurirano: 26/01/2021 21:00
NOT Current
Light snow, Pretežno oblačno
Light snow, Pretežno oblačno
 Pravac vetra SSZ
Vetar: SSZ 6 km/h
Temperatura: -2°C
Tačka rose: -2°C
Vlažnost: 100%
Pritisak: 1013 hPa
Pregled: Light Snow
Oblaci: Mostly Cloudy
Vidljivost: 8 km
Cloud details: Few Clouds 610 m
Partly Cloudy 914 m
Mostly Cloudy 1219 m
2021/01/26 20:00 LQSA 262000Z 33003KT 310V010 8000 -SN FEW020 SCT030 BKN040 M02/M02 Q1013
LDOS - Osijek, Hrvatksa
Ažurirano: 27/01/2021 12:00
Partly Cloudy
Partly Cloudy
 Pravac vetra SZ
Vetar: SZ 26 km/h
Temperatura: 3°C
Osećaj hladnoće: -2°C
Tačka rose: -2°C
Vlažnost: 70%
Pritisak: 1016 hPa
Oblaci: Partly Cloudy
Vidljivost: 10 km
Cloud details: Few Clouds 1219 m
Partly Cloudy 1311 m
2021/01/27 11:00 LDOS 271100Z 31014KT 9999 FEW040 SCT043 03/M02 Q1016